East Bernstadt, Kentucky
Current Conditions -  °F | °C
As of 8:53 PM on Saturday 20 Dec 2014 (Local Time) from KLOZ Reporting Station
Clear Clear  
Wind Chill: 32°   Ceiling: Unl
Heat Index: 32°   Visibility: 10mi
Dew Point: 24°   Wind: 0mph
Humidity: 73%   Direction: NA
Pressure: 30.26"   Gusts: NA
Location:  37.19°N, 84.12°W
Report Text: KLOZ 210153Z AUTO 00000KT 10SM CLR 00/M04 A3026 RMK AO2 SLP256 T00001044
Loading
Personal Weather Stations






























Interactive Weather Map New forecast layout! Learn more

10-Day Weather Forecast

Advertisements
Track Severe Weather on mobile